Time,TemperatureF,DewpointF,PressureIn,WindDirection,WindDirectionDegrees,WindSpeedMPH,WindSpeedGustMPH,Humidity,HourlyPrecipIn,Conditions,Clouds,dailyrainin,SoftwareType,DateUTC
2013-05-03 00:01:00,52.3,26.2,29.75,SW,232,2.7,2.7,36,0.00,,---,0.00,VWS V14.01,2013-05-03 04:01:00,
2013-05-03 00:06:00,52.2,26.0,29.75,NW,313,2.7,3.6,36,0.00,,---,0.00,VWS V14.01,2013-05-03 04:06:00,
2013-05-03 00:11:00,52.0,25.9,29.75,SE,143,2.2,2.2,36,0.00,,---,0.00,VWS V14.01,2013-05-03 04:11:00,
2013-05-03 00:16:00,52.2,26.0,29.75,NE,46,3.6,5.4,36,0.00,,---,0.00,VWS V14.01,2013-05-03 04:16:00,
2013-05-03 00:21:00,51.6,25.6,29.75,North,5,0.0,0.0,36,0.00,,---,0.00,VWS V14.01,2013-05-03 04:21:00,
2013-05-03 00:26:00,51.4,25.4,29.75,ENE,70,0.0,0.0,36,0.00,,---,0.00,VWS V14.01,2013-05-03 04:26:00,
2013-05-03 00:31:00,51.3,25.2,29.75,SSW,207,2.7,3.6,36,0.00,,---,0.00,VWS V14.01,2013-05-03 04:31:00,
2013-05-03 00:36:00,51.3,25.2,29.75,SSW,198,2.2,2.7,36,0.00,,---,0.00,VWS V14.01,2013-05-03 04:36:00,
2013-05-03 00:41:00,51.3,25.2,29.75,SSE,147,0.0,3.6,36,0.00,,---,0.00,VWS V14.01,2013-05-03 04:41:00,
2013-05-03 00:46:00,50.9,24.9,29.75,West,278,0.0,0.0,36,0.00,,---,0.00,VWS V14.01,2013-05-03 04:46:00,
2013-05-03 00:51:00,50.7,24.8,29.75,ENE,64,0.0,0.0,36,0.00,,---,0.00,VWS V14.01,2013-05-03 04:51:00,
2013-05-03 00:56:00,50.4,24.4,29.75,NE,37,0.0,0.0,36,0.00,,---,0.00,VWS V14.01,2013-05-03 04:56:00,
2013-05-03 01:01:00,50.0,24.1,29.75,West,260,0.0,0.0,36,0.00,,---,0.00,VWS V14.01,2013-05-03 05:01:00,
2013-05-03 01:06:00,49.6,24.5,29.75,South,186,0.0,0.0,37,0.00,,---,0.00,VWS V14.01,2013-05-03 05:06:00,
2013-05-03 01:11:00,49.5,24.3,29.75,SW,236,0.0,0.0,37,0.00,,---,0.00,VWS V14.01,2013-05-03 05:11:00,
2013-05-03 01:16:00,49.3,24.1,29.75,SSE,152,0.0,0.0,37,0.00,,---,0.00,VWS V14.01,2013-05-03 05:16:00,
2013-05-03 01:21:00,49.1,24.0,29.75,West,273,0.0,0.0,37,0.00,,---,0.00,VWS V14.01,2013-05-03 05:21:00,
2013-05-03 01:26:00,49.3,24.1,29.75,NNE,24,0.0,0.0,37,0.00,,---,0.00,VWS V14.01,2013-05-03 05:26:00,
2013-05-03 01:31:00,49.1,24.0,29.75,NNW,327,0.0,0.0,37,0.00,,---,0.00,VWS V14.01,2013-05-03 05:31:00,
2013-05-03 01:36:00,49.1,24.0,29.75,North,353,0.0,0.0,37,0.00,,---,0.00,VWS V14.01,2013-05-03 05:36:00,
2013-05-03 01:41:00,48.9,23.8,29.75,East,92,0.0,0.0,37,0.00,,---,0.00,VWS V14.01,2013-05-03 05:41:00,
2013-05-03 01:46:00,48.9,23.8,29.75,NNW,332,0.0,0.0,37,0.00,,---,0.00,VWS V14.01,2013-05-03 05:46:00,
2013-05-03 01:51:00,48.9,23.8,29.75,NE,46,0.0,0.0,37,0.00,,---,0.00,VWS V14.01,2013-05-03 05:51:00,
2013-05-03 01:56:00,48.9,23.8,29.75,South,181,0.0,0.0,37,0.00,,---,0.00,VWS V14.01,2013-05-03 05:56:00,
2013-05-03 02:01:00,48.7,23.6,29.75,North,8,0.0,0.0,37,0.00,,---,0.00,VWS V14.01,2013-05-03 06:01:00,
2013-05-03 02:06:00,48.7,23.6,29.75,North,353,0.0,0.0,37,0.00,,---,0.00,VWS V14.01,2013-05-03 06:06:00,
2013-05-03 02:11:00,48.7,23.6,29.75,WNW,286,0.0,0.0,37,0.00,,---,0.00,VWS V14.01,2013-05-03 06:11:00,
2013-05-03 02:16:00,48.7,23.6,29.75,NW,312,0.0,0.0,37,0.00,,---,0.00,VWS V14.01,2013-05-03 06:16:00,
2013-05-03 02:21:00,48.2,23.2,29.75,East,88,0.0,0.0,37,0.00,,---,0.00,VWS V14.01,2013-05-03 06:21:00,
2013-05-03 02:26:00,48.4,23.3,29.75,NNE,25,0.0,0.0,37,0.00,,---,0.00,VWS V14.01,2013-05-03 06:26:00,
2013-05-03 02:31:00,48.2,23.2,29.75,ENE,72,0.0,0.0,37,0.00,,---,0.00,VWS V14.01,2013-05-03 06:31:00,
2013-05-03 02:36:00,48.2,23.2,29.75,NNW,333,0.0,0.0,37,0.00,,---,0.00,VWS V14.01,2013-05-03 06:36:00,
2013-05-03 02:41:00,48.0,23.0,29.75,North,4,0.0,0.0,37,0.00,,---,0.00,VWS V14.01,2013-05-03 06:41:00,
2013-05-03 02:46:00,47.8,22.9,29.75,NE,39,0.0,0.0,37,0.00,,---,0.00,VWS V14.01,2013-05-03 06:46:00,
2013-05-03 02:51:00,47.8,22.9,29.75,NNE,12,0.0,0.0,37,0.00,,---,0.00,VWS V14.01,2013-05-03 06:51:00,
2013-05-03 02:56:00,47.7,22.7,29.75,NW,324,0.0,0.0,37,0.00,,---,0.00,VWS V14.01,2013-05-03 06:56:00,
2013-05-03 03:01:00,47.5,22.5,29.75,NW,306,0.0,0.0,37,0.00,,---,0.00,VWS V14.01,2013-05-03 07:01:00,
2013-05-03 03:06:00,47.3,22.4,29.75,West,275,0.0,0.0,37,0.00,,---,0.00,VWS V14.01,2013-05-03 07:06:00,
2013-05-03 03:11:00,47.1,22.2,29.75,SE,143,0.0,0.0,37,0.00,,---,0.00,VWS V14.01,2013-05-03 07:11:00,
2013-05-03 03:16:00,46.8,21.9,29.75,SE,140,0.0,0.0,37,0.00,,---,0.00,VWS V14.01,2013-05-03 07:16:00,
2013-05-03 03:21:00,46.2,22.0,29.75,SE,138,0.0,0.0,38,0.00,,---,0.00,VWS V14.01,2013-05-03 07:21:00,
2013-05-03 03:26:00,46.0,21.9,29.75,SE,138,0.0,0.0,38,0.00,,---,0.00,VWS V14.01,2013-05-03 07:26:00,
2013-05-03 03:31:00,45.3,21.2,29.75,SE,137,0.0,0.0,38,0.00,,---,0.00,VWS V14.01,2013-05-03 07:31:00,
2013-05-03 03:36:00,45.0,20.9,29.75,SE,137,0.0,0.0,38,0.00,,---,0.00,VWS V14.01,2013-05-03 07:36:00,
2013-05-03 03:41:00,44.6,20.6,29.75,SE,134,0.0,0.0,38,0.00,,---,0.00,VWS V14.01,2013-05-03 07:41:00,
2013-05-03 03:46:00,44.2,20.3,29.75,SE,134,0.0,0.0,38,0.00,,---,0.00,VWS V14.01,2013-05-03 07:46:00,
2013-05-03 03:51:00,44.1,20.1,29.75,East,100,0.0,0.0,38,0.00,,---,0.00,VWS V14.01,2013-05-03 07:51:00,
2013-05-03 03:56:00,43.9,19.9,29.75,NNE,19,0.0,0.0,38,0.00,,---,0.00,VWS V14.01,2013-05-03 07:56:00,
2013-05-03 04:01:00,43.7,19.8,29.75,WSW,238,0.0,0.0,38,0.00,,---,0.00,VWS V14.01,2013-05-03 08:01:00,
2013-05-03 04:06:00,43.5,19.6,29.75,West,263,0.0,0.0,38,0.00,,---,0.00,VWS V14.01,2013-05-03 08:06:00,
2013-05-03 04:11:00,43.5,19.6,29.75,NW,320,0.0,0.0,38,0.00,,---,0.00,VWS V14.01,2013-05-03 08:11:00,
2013-05-03 04:16:00,43.5,19.6,29.75,NW,320,0.0,0.0,38,0.00,,---,0.00,VWS V14.01,2013-05-03 08:16:00,
2013-05-03 04:21:00,43.5,19.6,29.75,NNW,343,0.0,0.0,38,0.00,,---,0.00,VWS V14.01,2013-05-03 08:21:00,
2013-05-03 04:26:00,43.7,19.8,29.75,WNW,293,2.2,3.1,38,0.00,,---,0.00,VWS V14.01,2013-05-03 08:26:00,
2013-05-03 04:31:00,44.2,20.3,29.75,WNW,293,0.0,0.0,38,0.00,,---,0.00,VWS V14.01,2013-05-03 08:31:00,
2013-05-03 04:36:00,44.4,20.4,29.75,WNW,298,0.0,0.0,38,0.00,,---,0.00,VWS V14.01,2013-05-03 08:36:00,
2013-05-03 04:41:00,44.6,20.6,29.75,NW,306,0.0,0.0,38,0.00,,---,0.00,VWS V14.01,2013-05-03 08:41:00,
2013-05-03 04:46:00,44.6,20.6,29.75,NW,307,0.0,0.0,38,0.00,,---,0.00,VWS V14.01,2013-05-03 08:46:00,
2013-05-03 04:51:00,44.6,20.6,29.75,SSW,212,0.0,0.0,38,0.00,,---,0.00,VWS V14.01,2013-05-03 08:51:00,
2013-05-03 04:56:00,44.4,20.4,29.75,North,2,0.0,0.0,38,0.00,,---,0.00,VWS V14.01,2013-05-03 08:56:00,
2013-05-03 05:01:00,44.6,20.6,29.75,NE,40,0.0,0.0,38,0.00,,---,0.00,VWS V14.01,2013-05-03 09:01:00,
2013-05-03 05:06:00,44.6,20.6,29.75,NE,50,0.0,0.0,38,0.00,,---,0.00,VWS V14.01,2013-05-03 09:06:00,
2013-05-03 05:11:00,44.8,20.7,29.75,NE,42,0.0,0.0,38,0.00,,---,0.00,VWS V14.01,2013-05-03 09:11:00,
2013-05-03 05:16:00,44.4,20.4,29.75,NE,37,0.0,0.0,38,0.00,,---,0.00,VWS V14.01,2013-05-03 09:16:00,
2013-05-03 05:21:00,44.2,20.3,29.75,NNE,21,0.0,0.0,38,0.00,,---,0.00,VWS V14.01,2013-05-03 09:21:00,
2013-05-03 05:26:00,44.4,20.4,29.75,North,353,0.0,0.0,38,0.00,,---,0.00,VWS V14.01,2013-05-03 09:26:00,
2013-05-03 05:31:00,44.4,20.4,29.75,North,353,0.0,0.0,38,0.00,,---,0.00,VWS V14.01,2013-05-03 09:31:00,
2013-05-03 05:36:00,44.6,20.6,29.75,NNW,342,0.0,0.0,38,0.00,,---,0.00,VWS V14.01,2013-05-03 09:36:00,
2013-05-03 05:41:00,44.6,20.6,29.75,North,6,0.0,0.0,38,0.00,,---,0.00,VWS V14.01,2013-05-03 09:41:00,
2013-05-03 05:46:00,44.4,20.4,29.75,North,10,0.0,0.0,38,0.00,,---,0.00,VWS V14.01,2013-05-03 09:46:00,
2013-05-03 05:51:00,44.6,20.6,29.75,NE,38,0.0,0.0,38,0.00,,---,0.00,VWS V14.01,2013-05-03 09:51:00,
2013-05-03 05:56:00,44.4,20.4,29.75,NNE,22,0.0,0.0,38,0.00,,---,0.00,VWS V14.01,2013-05-03 09:56:00,
2013-05-03 06:01:00,44.2,20.3,29.75,NNE,32,0.0,0.0,38,0.00,,---,0.00,VWS V14.01,2013-05-03 10:01:00,
2013-05-03 06:06:00,44.1,20.1,29.75,ENE,69,0.0,0.0,38,0.00,,---,0.00,VWS V14.01,2013-05-03 10:06:00,
2013-05-03 06:11:00,44.1,20.1,29.75,NE,37,0.0,0.0,38,0.00,,---,0.00,VWS V14.01,2013-05-03 10:11:00,
2013-05-03 06:16:00,43.7,19.8,29.75,NNE,27,0.0,0.0,38,0.00,,---,0.00,VWS V14.01,2013-05-03 10:16:00,
2013-05-03 06:21:00,43.7,19.8,29.75,NE,48,0.0,0.0,38,0.00,,---,0.00,VWS V14.01,2013-05-03 10:21:00,
2013-05-03 06:26:00,44.2,20.3,29.75,NW,315,0.0,0.0,38,0.00,,---,0.00,VWS V14.01,2013-05-03 10:26:00,
2013-05-03 06:31:00,45.3,21.2,29.75,NNE,17,0.0,0.0,38,0.00,,---,0.00,VWS V14.01,2013-05-03 10:31:00,
2013-05-03 06:36:00,45.5,21.4,29.75,WNW,292,0.0,0.0,38,0.00,,---,0.00,VWS V14.01,2013-05-03 10:36:00,
2013-05-03 06:41:00,45.5,21.4,29.75,SE,144,0.0,0.0,38,0.00,,---,0.00,VWS V14.01,2013-05-03 10:41:00,
2013-05-03 06:46:00,45.5,21.4,29.75,North,0,0.0,0.0,38,0.00,,---,0.00,VWS V14.01,2013-05-03 10:46:00,
2013-05-03 06:51:00,45.7,21.5,29.75,NE,35,0.0,0.0,38,0.00,,---,0.00,VWS V14.01,2013-05-03 10:51:00,
2013-05-03 06:56:00,45.9,21.7,29.75,WSW,237,0.0,0.0,38,0.00,,---,0.00,VWS V14.01,2013-05-03 10:56:00,
2013-05-03 07:01:00,46.0,21.9,29.75,North,8,0.0,0.0,38,0.00,,---,0.00,VWS V14.01,2013-05-03 11:01:00,
2013-05-03 07:06:00,46.4,21.6,29.75,NNE,31,0.0,0.0,37,0.00,,---,0.00,VWS V14.01,2013-05-03 11:06:00,
2013-05-03 07:11:00,46.8,21.9,29.75,NNE,30,2.2,3.1,37,0.00,,---,0.00,VWS V14.01,2013-05-03 11:11:00,
2013-05-03 07:16:00,46.9,22.0,29.75,NNE,31,0.0,0.0,37,0.00,,---,0.00,VWS V14.01,2013-05-03 11:16:00,
2013-05-03 07:21:00,46.9,22.0,29.75,NE,48,0.0,2.2,37,0.00,,---,0.00,VWS V14.01,2013-05-03 11:21:00,
2013-05-03 07:26:00,47.1,22.2,29.75,NE,49,0.0,0.0,37,0.00,,---,0.00,VWS V14.01,2013-05-03 11:26:00,
2013-05-03 07:31:00,47.3,22.4,29.75,North,9,2.2,3.1,37,0.00,,---,0.00,VWS V14.01,2013-05-03 11:31:00,
2013-05-03 07:36:00,48.0,23.0,29.75,NE,39,0.0,0.0,37,0.00,,---,0.00,VWS V14.01,2013-05-03 11:36:00,
2013-05-03 07:41:00,48.4,23.3,29.75,NNE,29,3.1,3.1,37,0.00,,---,0.00,VWS V14.01,2013-05-03 11:41:00,
2013-05-03 07:46:00,48.7,23.6,29.75,ESE,120,2.2,4.9,37,0.00,,---,0.00,VWS V14.01,2013-05-03 11:46:00,
2013-05-03 07:51:00,49.1,24.0,29.75,West,272,0.0,0.0,37,0.00,,---,0.00,VWS V14.01,2013-05-03 11:51:00,
2013-05-03 07:56:00,49.8,24.6,29.75,NE,45,0.0,0.0,37,0.00,,---,0.00,VWS V14.01,2013-05-03 11:56:00,
2013-05-03 08:01:00,50.2,24.3,29.75,NE,43,4.0,4.9,36,0.00,,---,0.00,VWS V14.01,2013-05-03 12:01:00,
2013-05-03 08:06:00,50.7,24.8,29.75,NNE,23,4.0,4.0,36,0.00,,---,0.00,VWS V14.01,2013-05-03 12:06:00,
2013-05-03 08:11:00,51.1,25.1,29.75,NE,54,2.7,7.6,36,0.00,,---,0.00,VWS V14.01,2013-05-03 12:11:00,
2013-05-03 08:16:00,51.6,25.6,29.75,NNE,19,3.6,3.6,36,0.00,,---,0.00,VWS V14.01,2013-05-03 12:16:00,
2013-05-03 08:21:00,52.2,26.0,29.75,NNW,343,3.6,3.6,36,0.00,,---,0.00,VWS V14.01,2013-05-03 12:21:00,
2013-05-03 08:26:00,52.2,26.0,29.75,NW,317,6.3,6.3,36,0.00,,---,0.00,VWS V14.01,2013-05-03 12:26:00,
2013-05-03 08:31:00,52.3,26.2,29.75,WSW,252,0.0,0.0,36,0.00,,---,0.00,VWS V14.01,2013-05-03 12:31:00,
2013-05-03 08:36:00,52.5,26.4,29.75,NW,314,3.1,5.8,36,0.00,,---,0.00,VWS V14.01,2013-05-03 12:36:00,
2013-05-03 08:41:00,52.9,26.7,29.75,ENE,61,4.0,4.0,36,0.00,,---,0.00,VWS V14.01,2013-05-03 12:41:00,
2013-05-03 08:46:00,53.4,27.1,29.75,North,2,4.9,4.9,36,0.00,,---,0.00,VWS V14.01,2013-05-03 12:46:00,
2013-05-03 08:51:00,53.8,27.5,29.75,NNE,23,4.9,6.3,36,0.00,,---,0.00,VWS V14.01,2013-05-03 12:51:00,
2013-05-03 08:56:00,54.1,27.8,29.75,SSW,209,2.2,2.2,36,0.00,,---,0.00,VWS V14.01,2013-05-03 12:56:00,
2013-05-03 09:01:00,54.7,28.3,29.75,NNW,334,0.0,3.1,36,0.00,,---,0.00,VWS V14.01,2013-05-03 13:01:00,
2013-05-03 09:06:00,55.0,28.6,29.75,North,0,0.0,0.0,36,0.00,,---,0.00,VWS V14.01,2013-05-03 13:06:00,
2013-05-03 09:11:00,55.4,28.2,29.75,SW,235,3.6,3.6,35,0.00,,---,0.00,VWS V14.01,2013-05-03 13:11:00,
2013-05-03 09:16:00,55.8,28.5,29.75,NW,325,3.6,5.8,35,0.00,,---,0.00,VWS V14.01,2013-05-03 13:16:00,
2013-05-03 09:21:00,56.3,29.0,29.75,NNE,29,5.8,5.8,35,0.00,,---,0.00,VWS V14.01,2013-05-03 13:21:00,
2013-05-03 09:26:00,56.8,29.5,29.75,NE,44,3.6,3.6,35,0.00,,---,0.00,VWS V14.01,2013-05-03 13:26:00,
2013-05-03 09:31:00,57.2,29.8,29.75,South,189,3.1,4.5,35,0.00,,---,0.00,VWS V14.01,2013-05-03 13:31:00,
2013-05-03 09:36:00,57.6,30.1,29.75,NE,49,2.2,4.9,35,0.00,,---,0.00,VWS V14.01,2013-05-03 13:36:00,
2013-05-03 09:41:00,57.7,30.3,29.75,NNE,12,2.7,6.3,35,0.00,,---,0.00,VWS V14.01,2013-05-03 13:41:00,
2013-05-03 09:46:00,58.1,30.6,29.75,WSW,243,5.8,6.3,35,0.00,,---,0.00,VWS V14.01,2013-05-03 13:46:00,
2013-05-03 09:51:00,58.5,30.9,29.75,North,353,0.0,3.6,35,0.00,,---,0.00,VWS V14.01,2013-05-03 13:51:00,
2013-05-03 09:56:00,59.0,30.7,29.78,ESE,120,4.0,4.0,34,0.00,,---,0.00,VWS V14.01,2013-05-03 13:56:00,
2013-05-03 10:01:00,59.2,30.9,29.78,WNW,292,3.1,3.1,34,0.00,,---,0.00,VWS V14.01,2013-05-03 14:01:00,
2013-05-03 10:06:00,59.4,31.0,29.78,South,181,3.6,6.3,34,0.00,,---,0.00,VWS V14.01,2013-05-03 14:06:00,
2013-05-03 10:11:00,59.7,31.3,29.78,North,357,3.6,4.0,34,0.00,,---,0.00,VWS V14.01,2013-05-03 14:11:00,
2013-05-03 10:16:00,60.1,31.6,29.78,WSW,245,3.1,3.1,34,0.00,,---,0.00,VWS V14.01,2013-05-03 14:16:00,
2013-05-03 10:21:00,60.1,31.6,29.78,ENE,58,5.4,6.3,34,0.00,,---,0.00,VWS V14.01,2013-05-03 14:21:00,
2013-05-03 10:26:00,60.1,31.6,29.78,ESE,120,3.6,6.3,34,0.00,,---,0.00,VWS V14.01,2013-05-03 14:26:00,
2013-05-03 10:31:00,60.4,32.0,29.78,NW,324,5.8,6.3,34,0.00,,---,0.00,VWS V14.01,2013-05-03 14:31:00,
2013-05-03 10:36:00,61.0,32.4,29.78,ENE,70,4.9,5.4,34,0.00,,---,0.00,VWS V14.01,2013-05-03 14:36:00,
2013-05-03 10:41:00,61.3,32.8,29.78,NW,318,0.0,4.9,34,0.00,,---,0.00,VWS V14.01,2013-05-03 14:41:00,
2013-05-03 10:46:00,61.0,32.4,29.78,ENE,64,3.1,3.1,34,0.00,,---,0.00,VWS V14.01,2013-05-03 14:46:00,
2013-05-03 10:51:00,61.5,32.9,29.78,ESE,119,3.6,7.6,34,0.00,,---,0.00,VWS V14.01,2013-05-03 14:51:00,
2013-05-03 10:56:00,61.9,33.2,29.78,ENE,75,3.1,5.4,34,0.00,,---,0.00,VWS V14.01,2013-05-03 14:56:00,
2013-05-03 11:01:00,61.3,32.8,29.78,North,10,8.3,9.6,34,0.00,,---,0.00,VWS V14.01,2013-05-03 15:01:00,
2013-05-03 11:06:00,61.7,33.1,29.78,North,357,0.0,0.0,34,0.00,,---,0.00,VWS V14.01,2013-05-03 15:06:00,
2013-05-03 11:11:00,62.6,33.9,29.78,SE,125,4.9,4.9,34,0.00,,---,0.00,VWS V14.01,2013-05-03 15:11:00,
2013-05-03 11:15:00,62.8,34.0,29.78,West,280,0.0,5.4,34,0.00,,---,0.00,VWS V14.01,2013-05-03 15:15:00,
2013-05-03 11:20:00,63.1,34.3,29.78,ESE,118,2.7,4.0,34,0.00,,---,0.00,VWS V14.01,2013-05-03 15:20:00,
2013-05-03 11:25:00,62.8,34.0,29.78,East,88,4.0,6.3,34,0.00,,---,0.00,VWS V14.01,2013-05-03 15:25:00,
2013-05-03 11:30:00,62.2,33.5,29.78,North,7,3.1,4.0,34,0.00,,---,0.00,VWS V14.01,2013-05-03 15:30:00,
2013-05-03 11:35:00,62.1,33.4,29.78,NE,52,2.7,5.4,34,0.00,,---,0.00,VWS V14.01,2013-05-03 15:35:00,
2013-05-03 11:40:00,61.0,32.4,29.78,NNE,31,6.7,6.7,34,0.00,,---,0.00,VWS V14.01,2013-05-03 15:40:00,
2013-05-03 11:45:00,61.9,33.2,29.78,NW,310,0.0,8.3,34,0.00,,---,0.00,VWS V14.01,2013-05-03 15:45:00,
2013-05-03 11:50:00,63.1,34.3,29.78,North,349,0.0,3.6,34,0.00,,---,0.00,VWS V14.01,2013-05-03 15:50:00,
2013-05-03 11:55:00,62.2,33.5,29.78,ESE,123,4.9,7.6,34,0.00,,---,0.00,VWS V14.01,2013-05-03 15:55:00,
2013-05-03 12:00:00,63.0,34.2,29.78,North,0,3.1,4.9,34,0.00,,---,0.00,VWS V14.01,2013-05-03 16:00:00,
2013-05-03 12:05:00,63.5,34.7,29.78,SE,135,0.0,3.1,34,0.00,,---,0.00,VWS V14.01,2013-05-03 16:05:00,
2013-05-03 12:10:00,64.2,35.3,29.78,NNE,28,6.3,8.7,34,0.00,,---,0.00,VWS V14.01,2013-05-03 16:10:00,
2013-05-03 12:15:00,64.2,35.3,29.78,NE,36,3.6,4.0,34,0.00,,---,0.00,VWS V14.01,2013-05-03 16:15:00,
2013-05-03 12:20:00,63.9,35.0,29.78,NNE,25,3.1,4.0,34,0.00,,---,0.00,VWS V14.01,2013-05-03 16:20:00,
2013-05-03 12:25:00,64.4,34.7,29.75,NE,40,4.0,5.4,33,0.00,,---,0.00,VWS V14.01,2013-05-03 16:25:00,
2013-05-03 12:30:00,64.8,35.0,29.75,WSW,246,0.0,3.6,33,0.00,,---,0.00,VWS V14.01,2013-05-03 16:30:00,
2013-05-03 12:35:00,65.1,35.3,29.75,North,353,2.2,3.1,33,0.00,,---,0.00,VWS V14.01,2013-05-03 16:35:00,
2013-05-03 12:40:00,65.5,35.6,29.75,ENE,69,5.4,6.3,33,0.00,,---,0.00,VWS V14.01,2013-05-03 16:40:00,
2013-05-03 12:45:00,65.5,35.6,29.75,SW,234,5.8,7.6,33,0.00,,---,0.00,VWS V14.01,2013-05-03 16:45:00,
2013-05-03 12:50:00,66.4,36.4,29.75,NNE,32,3.1,6.7,33,0.00,,---,0.00,VWS V14.01,2013-05-03 16:50:00,
2013-05-03 12:55:00,66.4,36.4,29.75,SSE,155,2.7,4.9,33,0.00,,---,0.00,VWS V14.01,2013-05-03 16:55:00,
2013-05-03 13:00:00,65.8,36.0,29.75,WNW,283,4.0,4.0,33,0.00,,---,0.00,VWS V14.01,2013-05-03 17:00:00,
2013-05-03 13:05:00,66.2,36.3,29.75,North,0,4.9,4.9,33,0.00,,---,0.00,VWS V14.01,2013-05-03 17:05:00,
2013-05-03 13:10:00,66.4,36.4,29.75,NE,34,2.7,7.2,33,0.00,,---,0.00,VWS V14.01,2013-05-03 17:10:00,
2013-05-03 13:15:00,65.3,35.5,29.75,ENE,57,10.1,10.1,33,0.00,,---,0.00,VWS V14.01,2013-05-03 17:15:00,
2013-05-03 13:20:00,65.1,35.3,29.75,SSE,164,3.6,3.6,33,0.00,,---,0.00,VWS V14.01,2013-05-03 17:20:00,
2013-05-03 13:25:00,66.2,36.3,29.75,SSW,195,4.9,7.6,33,0.00,,---,0.00,VWS V14.01,2013-05-03 17:25:00,
2013-05-03 13:30:00,67.3,37.2,29.75,West,276,0.0,3.1,33,0.00,,---,0.00,VWS V14.01,2013-05-03 17:30:00,
2013-05-03 13:35:00,67.6,37.5,29.75,SSE,165,5.4,9.6,33,0.00,,---,0.00,VWS V14.01,2013-05-03 17:35:00,
2013-05-03 13:40:00,68.9,37.8,29.75,SW,229,3.6,4.9,32,0.00,,---,0.00,VWS V14.01,2013-05-03 17:40:00,
2013-05-03 13:45:00,68.7,37.7,29.75,NNE,22,4.0,4.0,32,0.00,,---,0.00,VWS V14.01,2013-05-03 17:45:00,
2013-05-03 13:50:00,68.2,37.2,29.75,NNE,30,3.1,4.0,32,0.00,,---,0.00,VWS V14.01,2013-05-03 17:50:00,
2013-05-03 13:55:00,67.8,37.7,29.75,NW,310,2.7,5.8,33,0.00,,---,0.00,VWS V14.01,2013-05-03 17:55:00,
2013-05-03 14:00:00,67.5,37.4,29.75,NNW,337,3.6,8.1,33,0.00,,---,0.00,VWS V14.01,2013-05-03 18:00:00,
2013-05-03 14:05:00,66.9,36.9,29.75,NE,44,3.1,6.3,33,0.00,,---,0.00,VWS V14.01,2013-05-03 18:05:00,
2013-05-03 14:10:00,68.4,37.4,29.75,SE,131,3.1,4.0,32,0.00,,---,0.00,VWS V14.01,2013-05-03 18:10:00,
2013-05-03 14:15:00,70.5,39.3,29.75,SSE,158,0.0,6.3,32,0.00,,---,0.00,VWS V14.01,2013-05-03 18:15:00,
2013-05-03 14:20:00,70.2,39.0,29.75,East,95,4.5,4.5,32,0.00,,---,0.00,VWS V14.01,2013-05-03 18:20:00,
2013-05-03 14:25:00,70.5,39.3,29.75,East,79,4.9,4.9,32,0.00,,---,0.00,VWS V14.01,2013-05-03 18:25:00,
2013-05-03 14:30:00,69.1,38.0,29.75,NW,325,4.0,7.6,32,0.00,,---,0.00,VWS V14.01,2013-05-03 18:30:00,
2013-05-03 14:35:00,69.1,38.0,29.75,NE,49,2.7,8.1,32,0.00,,---,0.00,VWS V14.01,2013-05-03 18:35:00,
2013-05-03 14:40:00,69.1,38.0,29.75,NNE,33,4.9,4.9,32,0.00,,---,0.00,VWS V14.01,2013-05-03 18:40:00,
2013-05-03 14:45:00,70.0,38.8,29.75,West,276,0.0,5.8,32,0.00,,---,0.00,VWS V14.01,2013-05-03 18:45:00,
2013-05-03 14:50:00,69.6,38.5,29.75,NNE,23,0.0,5.8,32,0.00,,---,0.00,VWS V14.01,2013-05-03 18:50:00,
2013-05-03 14:55:00,70.7,39.4,29.75,ESE,111,4.0,4.9,32,0.00,,---,0.00,VWS V14.01,2013-05-03 18:55:00,
2013-05-03 15:00:00,71.8,40.4,29.75,ENE,59,2.7,3.6,32,0.00,,---,0.00,VWS V14.01,2013-05-03 19:00:00,
2013-05-03 15:05:00,69.1,38.0,29.75,NE,54,6.3,8.1,32,0.00,,---,0.00,VWS V14.01,2013-05-03 19:05:00,
2013-05-03 15:10:00,70.0,38.8,29.75,SE,126,0.0,4.9,32,0.00,,---,0.00,VWS V14.01,2013-05-03 19:10:00,
2013-05-03 15:15:00,70.9,39.6,29.75,NNW,340,4.5,5.8,32,0.00,,---,0.00,VWS V14.01,2013-05-03 19:15:00,
2013-05-03 15:20:00,72.0,40.5,29.75,SE,133,2.2,3.6,32,0.00,,---,0.00,VWS V14.01,2013-05-03 19:20:00,
2013-05-03 15:25:00,72.1,40.7,29.72,NW,318,2.7,2.7,32,0.00,,---,0.00,VWS V14.01,2013-05-03 19:25:00,
2013-05-03 15:30:00,72.3,40.8,29.72,ENE,59,4.9,6.3,32,0.00,,---,0.00,VWS V14.01,2013-05-03 19:30:00,
2013-05-03 15:35:00,72.3,40.8,29.72,South,173,3.1,4.0,32,0.00,,---,0.00,VWS V14.01,2013-05-03 19:35:00,
2013-05-03 15:40:00,71.6,40.2,29.72,NE,38,5.4,6.3,32,0.00,,---,0.00,VWS V14.01,2013-05-03 19:40:00,
2013-05-03 15:45:00,70.9,39.6,29.72,East,89,2.2,3.1,32,0.00,,---,0.00,VWS V14.01,2013-05-03 19:45:00,
2013-05-03 15:50:00,71.8,40.4,29.72,NE,40,0.0,0.0,32,0.00,,---,0.00,VWS V14.01,2013-05-03 19:50:00,
2013-05-03 15:55:00,70.7,39.4,29.72,North,357,6.3,7.2,32,0.00,,---,0.00,VWS V14.01,2013-05-03 19:55:00,
2013-05-03 16:00:00,70.9,39.6,29.72,North,11,2.7,3.1,32,0.00,,---,0.00,VWS V14.01,2013-05-03 20:00:00,
2013-05-03 16:05:00,71.6,40.2,29.72,NNE,32,2.7,3.6,32,0.00,,---,0.00,VWS V14.01,2013-05-03 20:05:00,
2013-05-03 16:10:00,70.2,39.0,29.72,NE,54,6.3,6.3,32,0.00,,---,0.00,VWS V14.01,2013-05-03 20:10:00,
2013-05-03 16:15:00,71.1,39.7,29.72,NE,45,7.6,7.6,32,0.00,,---,0.00,VWS V14.01,2013-05-03 20:15:00,
2013-05-03 16:20:00,71.6,40.2,29.72,SE,124,5.4,5.4,32,0.00,,---,0.00,VWS V14.01,2013-05-03 20:20:00,
2013-05-03 16:25:00,72.3,40.8,29.72,NE,34,4.9,4.9,32,0.00,,---,0.00,VWS V14.01,2013-05-03 20:25:00,
2013-05-03 16:30:00,72.0,40.5,29.72,South,171,2.7,3.6,32,0.00,,---,0.00,VWS V14.01,2013-05-03 20:30:00,
2013-05-03 16:35:00,72.3,40.8,29.72,ESE,112,3.1,3.1,32,0.00,,---,0.00,VWS V14.01,2013-05-03 20:35:00,
2013-05-03 16:40:00,72.5,41.0,29.72,North,350,3.6,4.9,32,0.00,,---,0.00,VWS V14.01,2013-05-03 20:40:00,
2013-05-03 16:45:00,73.9,41.4,29.72,NE,35,2.2,2.2,31,0.00,,---,0.00,VWS V14.01,2013-05-03 20:45:00,
2013-05-03 16:50:00,73.6,41.1,29.72,ENE,72,2.2,3.6,31,0.00,,---,0.00,VWS V14.01,2013-05-03 20:50:00,
2013-05-03 16:55:00,73.8,41.3,29.72,East,85,2.7,4.0,31,0.00,,---,0.00,VWS V14.01,2013-05-03 20:55:00,
2013-05-03 17:00:00,72.0,40.5,29.72,West,279,0.0,0.0,32,0.00,,---,0.00,VWS V14.01,2013-05-03 21:00:00,
2013-05-03 17:05:00,72.5,41.0,29.72,SW,229,2.7,3.6,32,0.00,,---,0.00,VWS V14.01,2013-05-03 21:05:00,
2013-05-03 17:10:00,72.3,40.8,29.72,SE,144,2.7,2.7,32,0.00,,---,0.00,VWS V14.01,2013-05-03 21:10:00,
2013-05-03 17:15:00,69.4,38.3,29.72,NNE,29,3.6,3.6,32,0.00,,---,0.00,VWS V14.01,2013-05-03 21:15:00,
2013-05-03 17:20:00,69.1,38.0,29.72,NNE,32,3.6,5.4,32,0.00,,---,0.00,VWS V14.01,2013-05-03 21:20:00,
2013-05-03 17:25:00,70.0,38.8,29.72,NE,53,5.8,5.8,32,0.00,,---,0.00,VWS V14.01,2013-05-03 21:25:00,
2013-05-03 17:30:00,69.8,38.6,29.72,NE,35,3.6,6.3,32,0.00,,---,0.00,VWS V14.01,2013-05-03 21:30:00,
2013-05-03 17:35:00,69.1,38.0,29.72,East,98,3.1,5.4,32,0.00,,---,0.00,VWS V14.01,2013-05-03 21:35:00,
2013-05-03 17:40:00,71.2,39.9,29.72,South,191,0.0,3.1,32,0.00,,---,0.00,VWS V14.01,2013-05-03 21:40:00,
2013-05-03 17:45:00,69.1,38.0,29.72,North,357,2.2,4.0,32,0.00,,---,0.00,VWS V14.01,2013-05-03 21:45:00,
2013-05-03 17:50:00,68.2,37.2,29.72,West,266,2.7,2.7,32,0.00,,---,0.00,VWS V14.01,2013-05-03 21:50:00,
2013-05-03 17:55:00,66.9,36.9,29.72,NE,34,3.1,3.1,33,0.00,,---,0.00,VWS V14.01,2013-05-03 21:55:00,
2013-05-03 18:00:00,66.6,36.6,29.72,East,81,0.0,0.0,33,0.00,,---,0.00,VWS V14.01,2013-05-03 22:00:00,
2013-05-03 18:05:00,65.8,36.0,29.72,NNE,14,5.8,7.6,33,0.00,,---,0.00,VWS V14.01,2013-05-03 22:05:00,
2013-05-03 18:10:00,65.7,35.8,29.72,ENE,66,2.7,4.0,33,0.00,,---,0.00,VWS V14.01,2013-05-03 22:10:00,
2013-05-03 18:15:00,65.3,35.5,29.72,SSW,199,4.9,5.4,33,0.00,,---,0.00,VWS V14.01,2013-05-03 22:15:00,
2013-05-03 18:20:00,64.6,34.8,29.72,NNW,343,5.8,5.8,33,0.00,,---,0.00,VWS V14.01,2013-05-03 22:20:00,
2013-05-03 18:25:00,64.4,34.7,29.72,NNE,31,2.7,2.7,33,0.00,,---,0.00,VWS V14.01,2013-05-03 22:25:00,
2013-05-03 18:30:00,64.2,35.3,29.72,WSW,258,0.0,5.8,34,0.00,,---,0.00,VWS V14.01,2013-05-03 22:30:00,
2013-05-03 18:35:00,64.2,35.3,29.72,SSW,200,3.6,5.4,34,0.00,,---,0.00,VWS V14.01,2013-05-03 22:35:00,
2013-05-03 18:40:00,63.9,35.0,29.72,SW,234,3.1,3.6,34,0.00,,---,0.00,VWS V14.01,2013-05-03 22:40:00,
2013-05-03 18:45:00,63.7,34.8,29.72,SE,127,0.0,3.1,34,0.00,,---,0.00,VWS V14.01,2013-05-03 22:45:00,
2013-05-03 18:50:00,63.0,34.2,29.72,NNW,332,2.7,3.1,34,0.00,,---,0.00,VWS V14.01,2013-05-03 22:50:00,
2013-05-03 18:55:00,62.2,33.5,29.72,ENE,59,3.1,3.1,34,0.00,,---,0.00,VWS V14.01,2013-05-03 22:55:00,
2013-05-03 19:00:00,61.5,32.9,29.72,NW,310,0.0,0.0,34,0.00,,---,0.00,VWS V14.01,2013-05-03 23:00:00,
2013-05-03 19:05:00,61.0,32.4,29.72,ESE,122,4.9,4.9,34,0.00,,---,0.00,VWS V14.01,2013-05-03 23:05:00,
2013-05-03 19:10:00,60.6,32.1,29.72,NE,54,0.0,0.0,34,0.00,,---,0.00,VWS V14.01,2013-05-03 23:10:00,
2013-05-03 19:15:00,60.4,32.0,29.72,SW,226,3.6,3.6,34,0.00,,---,0.00,VWS V14.01,2013-05-03 23:15:00,
2013-05-03 19:20:00,60.3,31.8,29.72,North,6,0.0,0.0,34,0.00,,---,0.00,VWS V14.01,2013-05-03 23:20:00,
2013-05-03 19:25:00,60.1,31.6,29.72,ENE,66,4.0,4.0,34,0.00,,---,0.00,VWS V14.01,2013-05-03 23:25:00,
2013-05-03 19:30:00,59.9,31.5,29.72,NNW,340,2.7,3.1,34,0.00,,---,0.00,VWS V14.01,2013-05-03 23:30:00,
2013-05-03 19:35:00,59.5,31.2,29.72,NE,38,2.7,3.6,34,0.00,,---,0.00,VWS V14.01,2013-05-03 23:35:00,
2013-05-03 19:40:00,59.4,31.0,29.72,NE,38,2.7,3.1,34,0.00,,---,0.00,VWS V14.01,2013-05-03 23:40:00,
2013-05-03 19:45:00,59.0,30.7,29.72,NE,36,3.1,3.1,34,0.00,,---,0.00,VWS V14.01,2013-05-03 23:45:00,
2013-05-03 19:50:00,58.8,31.2,29.72,SSW,206,3.6,3.6,35,0.00,,---,0.00,VWS V14.01,2013-05-03 23:50:00,
2013-05-03 19:55:00,58.3,30.8,29.72,North,5,0.0,3.1,35,0.00,,---,0.00,VWS V14.01,2013-05-03 23:55:00,
2013-05-03 20:00:00,58.1,30.6,29.72,East,88,3.6,3.6,35,0.00,,---,0.00,VWS V14.01,2013-05-04 00:00:00,
2013-05-03 20:05:00,57.7,30.3,29.72,North,357,0.0,2.7,35,0.00,,---,0.00,VWS V14.01,2013-05-04 00:05:00,
2013-05-03 20:10:00,57.4,30.0,29.72,NNE,22,4.0,4.0,35,0.00,,---,0.00,VWS V14.01,2013-05-04 00:10:00,
2013-05-03 20:15:00,57.0,29.7,29.72,ESE,120,0.0,0.0,35,0.00,,---,0.00,VWS V14.01,2013-05-04 00:15:00,
2013-05-03 20:20:00,56.7,29.3,29.72,East,91,3.6,5.8,35,0.00,,---,0.00,VWS V14.01,2013-05-04 00:20:00,
2013-05-03 20:25:00,56.5,29.2,29.72,West,271,0.0,2.2,35,0.00,,---,0.00,VWS V14.01,2013-05-04 00:25:00,
2013-05-03 20:30:00,56.3,29.0,29.72,South,184,0.0,0.0,35,0.00,,---,0.00,VWS V14.01,2013-05-04 00:30:00,
2013-05-03 20:35:00,55.8,28.5,29.72,NE,38,0.0,0.0,35,0.00,,---,0.00,VWS V14.01,2013-05-04 00:35:00,
2013-05-03 20:40:00,55.4,28.2,29.72,NW,325,3.6,3.6,35,0.00,,---,0.00,VWS V14.01,2013-05-04 00:40:00,
2013-05-03 20:45:00,55.2,28.8,29.72,NNE,31,0.0,2.2,36,0.00,,---,0.00,VWS V14.01,2013-05-04 00:45:00,
2013-05-03 20:50:00,54.9,28.4,29.72,NNW,342,0.0,0.0,36,0.00,,---,0.00,VWS V14.01,2013-05-04 00:50:00,
2013-05-03 20:55:00,55.0,28.6,29.72,NE,44,0.0,0.0,36,0.00,,---,0.00,VWS V14.01,2013-05-04 00:55:00,
2013-05-03 21:00:00,54.9,28.4,29.72,NNE,33,3.1,3.1,36,0.00,,---,0.00,VWS V14.01,2013-05-04 01:00:00,
2013-05-03 21:05:00,54.9,28.4,29.72,NE,44,2.7,2.7,36,0.00,,---,0.00,VWS V14.01,2013-05-04 01:05:00,
2013-05-03 21:10:00,54.7,28.3,29.72,NE,46,0.0,0.0,36,0.00,,---,0.00,VWS V14.01,2013-05-04 01:10:00,
2013-05-03 21:15:00,54.5,28.1,29.72,NE,49,0.0,2.7,36,0.00,,---,0.00,VWS V14.01,2013-05-04 01:15:00,
2013-05-03 21:20:00,54.3,28.0,29.72,NNE,21,0.0,5.4,36,0.00,,---,0.00,VWS V14.01,2013-05-04 01:20:00,
2013-05-03 21:25:00,54.1,27.8,29.72,WSW,258,0.0,0.0,36,0.00,,---,0.00,VWS V14.01,2013-05-04 01:25:00,
2013-05-03 21:30:00,54.1,27.8,29.72,NNE,17,0.0,0.0,36,0.00,,---,0.00,VWS V14.01,2013-05-04 01:30:00,
2013-05-03 21:35:00,53.8,27.5,29.72,NNW,335,0.0,0.0,36,0.00,,---,0.00,VWS V14.01,2013-05-04 01:35:00,
2013-05-03 21:40:00,53.6,27.3,29.72,WSW,244,2.7,3.1,36,0.00,,---,0.00,VWS V14.01,2013-05-04 01:40:00,
2013-05-03 21:45:00,53.4,27.1,29.72,ESE,102,2.2,2.2,36,0.00,,---,0.00,VWS V14.01,2013-05-04 01:45:00,
2013-05-03 21:50:00,53.2,27.0,29.72,North,353,0.0,0.0,36,0.00,,---,0.00,VWS V14.01,2013-05-04 01:50:00,
2013-05-03 21:55:00,53.2,27.0,29.72,NE,36,0.0,0.0,36,0.00,,---,0.00,VWS V14.01,2013-05-04 01:55:00,
2013-05-03 22:00:00,53.1,26.8,29.72,NW,322,0.0,2.2,36,0.00,,---,0.00,VWS V14.01,2013-05-04 02:00:00,
2013-05-03 22:05:00,53.1,26.8,29.72,NNW,341,2.7,2.7,36,0.00,,---,0.00,VWS V14.01,2013-05-04 02:05:00,
2013-05-03 22:10:00,52.9,26.7,29.72,ENE,58,3.1,4.0,36,0.00,,---,0.00,VWS V14.01,2013-05-04 02:10:00,
2013-05-03 22:15:00,52.9,26.7,29.72,North,9,0.0,0.0,36,0.00,,---,0.00,VWS V14.01,2013-05-04 02:15:00,
2013-05-03 22:20:00,52.7,26.5,29.72,East,86,0.0,0.0,36,0.00,,---,0.00,VWS V14.01,2013-05-04 02:20:00,
2013-05-03 22:25:00,52.3,26.2,29.72,ESE,103,2.7,2.7,36,0.00,,---,0.00,VWS V14.01,2013-05-04 02:25:00,
2013-05-03 22:30:00,52.2,26.0,29.72,North,350,0.0,0.0,36,0.00,,---,0.00,VWS V14.01,2013-05-04 02:30:00,
2013-05-03 22:35:00,52.0,25.9,29.72,NNE,30,0.0,2.2,36,0.00,,---,0.00,VWS V14.01,2013-05-04 02:35:00,
2013-05-03 22:40:00,52.2,26.0,29.72,NNE,29,2.7,5.4,36,0.00,,---,0.00,VWS V14.01,2013-05-04 02:40:00,
2013-05-03 22:45:00,52.0,25.9,29.72,NNE,27,2.7,3.1,36,0.00,,---,0.00,VWS V14.01,2013-05-04 02:45:00,
2013-05-03 22:50:00,51.6,25.6,29.72,NNW,328,2.7,2.7,36,0.00,,---,0.00,VWS V14.01,2013-05-04 02:50:00,
2013-05-03 22:55:00,51.3,25.2,29.72,North,6,4.0,4.0,36,0.00,,---,0.00,VWS V14.01,2013-05-04 02:55:00,
2013-05-03 23:00:00,51.3,25.2,29.72,NE,54,0.0,0.0,36,0.00,,---,0.00,VWS V14.01,2013-05-04 03:00:00,
2013-05-03 23:05:00,51.3,25.2,29.72,NNE,14,2.2,2.2,36,0.00,,---,0.00,VWS V14.01,2013-05-04 03:05:00,
2013-05-03 23:10:00,51.1,25.1,29.72,NE,49,0.0,0.0,36,0.00,,---,0.00,VWS V14.01,2013-05-04 03:10:00,
2013-05-03 23:15:00,50.5,24.6,29.72,NW,321,0.0,0.0,36,0.00,,---,0.00,VWS V14.01,2013-05-04 03:15:00,
2013-05-03 23:20:00,50.2,24.3,29.72,WNW,293,0.0,0.0,36,0.00,,---,0.00,VWS V14.01,2013-05-04 03:20:00,
2013-05-03 23:25:00,50.5,24.6,29.72,East,89,2.2,5.4,36,0.00,,---,0.00,VWS V14.01,2013-05-04 03:25:00,
2013-05-03 23:30:00,50.4,24.4,29.72,NNE,12,4.5,4.5,36,0.00,,---,0.00,VWS V14.01,2013-05-04 03:30:00,
2013-05-03 23:35:00,50.0,24.1,29.72,North,3,4.0,4.0,36,0.00,,---,0.00,VWS V14.01,2013-05-04 03:35:00,
2013-05-03 23:40:00,49.8,24.6,29.72,North,1,3.6,3.6,37,0.00,,---,0.00,VWS V14.01,2013-05-04 03:40:00,
2013-05-03 23:45:00,49.5,24.3,29.72,South,181,2.7,4.0,37,0.00,,---,0.00,VWS V14.01,2013-05-04 03:45:00,
2013-05-03 23:50:00,49.3,24.1,29.72,NNE,17,0.0,0.0,37,0.00,,---,0.00,VWS V14.01,2013-05-04 03:50:00,
2013-05-03 23:55:00,48.9,23.8,29.72,West,280,0.0,3.6,37,0.00,,---,0.00,VWS V14.01,2013-05-04 03:55:00,